Time;durP1;ratioP1;P1;durP2;ratioP2;P2;SDS_P1;SDS_P2;PMS_P1;PMS_P2;Temp;Humidity;BMP_temperature;BMP_pressure;BME280_temperature;BME280_humidity;BME280_pressure;Samples;Min_cycle;Max_cycle;Signal;HPM_P1;HPM_P2
2023/01/27 00:00:50;;;;;;;31.60;15.70;;;0.40;99.90;;;;;;4196253;28;20311;-65
2023/01/27 00:02:51;;;;;;;35.97;17.07;;;0.40;99.90;;;;;;4179955;28;20635;-62
2023/01/27 00:04:52;;;;;;;36.37;17.77;;;0.30;99.90;;;;;;4180106;28;20761;-61
2023/01/27 00:06:53;;;;;;;33.53;17.33;;;0.20;99.90;;;;;;4193242;28;20246;-61
2023/01/27 00:08:55;;;;;;;35.33;16.47;;;0.20;99.90;;;;;;4179250;28;20742;-62
2023/01/27 00:13:30;;;;;;;37.47;15.33;;;0.20;99.90;;;;;;4179288;28;20336;-62
2023/01/27 00:15:33;;;;;;;39.50;17.53;;;0.30;99.90;;;;;;4185081;28;20322;-63
2023/01/27 00:17:34;;;;;;;43.50;17.67;;;0.20;99.90;;;;;;4185802;28;20359;-62
2023/01/27 00:19:36;;;;;;;38.23;19.27;;;0.20;99.90;;;;;;4180061;28;20339;-62
2023/01/27 00:26:30;;;;;;;40.13;17.70;;;0.30;99.90;;;;;;4174878;28;20718;-61
2023/01/27 00:28:32;;;;;;;36.03;18.47;;;0.30;99.90;;;;;;4191649;28;20675;-69
2023/01/27 00:30:33;;;;;;;42.07;18.90;;;0.30;99.90;;;;;;4194997;28;20335;-61
2023/01/27 00:34:54;;;;;;;34.73;18.47;;;0.20;99.90;;;;;;4191244;28;20346;-62
2023/01/27 00:36:55;;;;;;;35.10;18.13;;;0.20;99.90;;;;;;4177916;28;20316;-61
2023/01/27 00:38:56;;;;;;;41.13;19.03;;;0.10;99.90;;;;;;4178966;28;20320;-62
2023/01/27 00:43:17;;;;;;;44.13;19.07;;;0.10;99.90;;;;;;4178615;28;20339;-69
2023/01/27 00:47:38;;;;;;;42.13;18.93;;;0.10;99.90;;;;;;4195033;28;20331;-68
2023/01/27 00:49:39;;;;;;;41.80;20.33;;;0.10;99.90;;;;;;4185309;28;20315;-61
2023/01/27 00:51:41;;;;;;;47.93;21.03;;;0.10;99.90;;;;;;4179477;28;20323;-62
2023/01/27 00:53:42;;;;;;;42.43;21.47;;;0.00;99.90;;;;;;4188503;28;20266;-61
2023/01/27 00:55:46;;;;;;;47.13;20.33;;;0.00;99.90;;;;;;4178118;28;20288;-63
2023/01/27 00:57:47;;;;;;;46.90;20.10;;;0.10;99.90;;;;;;4177797;28;20270;-66
2023/01/27 00:59:48;;;;;;;45.43;19.90;;;0.10;99.90;;;;;;4178217;28;20274;-62
2023/01/27 01:01:49;;;;;;;41.60;20.07;;;0.00;99.90;;;;;;4189151;28;20297;-61
2023/01/27 01:03:50;;;;;;;48.20;19.97;;;0.00;99.90;;;;;;4182353;28;20773;-62
2023/01/27 01:05:51;;;;;;;45.43;19.33;;;0.00;99.90;;;;;;4178341;28;20286;-62
2023/01/27 01:07:52;;;;;;;48.63;20.17;;;0.00;99.90;;;;;;4190045;28;20821;-62
2023/01/27 01:09:54;;;;;;;38.50;18.70;;;-0.10;99.90;;;;;;4194933;28;20322;-64
2023/01/27 01:11:55;;;;;;;45.83;19.53;;;-0.10;99.90;;;;;;4193114;28;20273;-62
2023/01/27 01:13:56;;;;;;;40.40;18.23;;;-0.10;99.90;;;;;;4194552;28;20346;-63
2023/01/27 01:16:03;;;;;;;38.67;17.67;;;-0.20;99.90;;;;;;4193731;28;20269;-62
2023/01/27 01:18:05;;;;;;;39.03;18.10;;;-0.10;99.90;;;;;;4194743;28;20331;-60
2023/01/27 01:20:07;;;;;;;46.60;19.53;;;-0.20;99.90;;;;;;4179386;28;20882;-62
2023/01/27 01:22:08;;;;;;;37.63;18.40;;;-0.20;99.90;;;;;;4181570;28;20323;-61
2023/01/27 01:24:10;;;;;;;44.83;19.50;;;-0.20;99.90;;;;;;4187843;28;20278;-62
2023/01/27 01:26:13;;;;;;;47.43;21.03;;;-0.20;99.90;;;;;;4178051;28;20270;-63
2023/01/27 01:28:14;;;;;;;43.33;19.60;;;-0.30;99.90;;;;;;4179659;28;20266;-61
2023/01/27 01:30:16;;;;;;;42.27;19.33;;;-0.30;99.90;;;;;;4180128;28;20308;-61
2023/01/27 01:32:17;;;;;;;43.37;20.83;;;-0.30;99.90;;;;;;4178673;28;20290;-63
2023/01/27 01:34:18;;;;;;;47.23;20.40;;;-0.30;99.90;;;;;;4192933;28;20293;-62
2023/01/27 01:36:20;;;;;;;44.50;20.47;;;-0.30;99.90;;;;;;4194349;28;20339;-62
2023/01/27 01:38:21;;;;;;;43.97;20.73;;;-0.30;99.90;;;;;;4193007;28;20265;-62
2023/01/27 01:40:24;;;;;;;36.00;17.87;;;-0.20;99.90;;;;;;4194667;28;20741;-69
2023/01/27 01:42:25;;;;;;;43.13;19.60;;;-0.20;99.90;;;;;;4193597;28;20814;-62
2023/01/27 01:44:29;;;;;;;37.90;18.33;;;-0.20;99.90;;;;;;4194608;28;20289;-65
2023/01/27 01:46:31;;;;;;;45.73;20.80;;;-0.10;99.90;;;;;;4193227;28;20818;-68
2023/01/27 01:48:35;;;;;;;39.40;19.53;;;-0.20;99.90;;;;;;4194480;28;20277;-70
2023/01/27 01:50:39;;;;;;;35.90;18.17;;;-0.20;99.90;;;;;;4186263;28;20987;-62
2023/01/27 01:52:40;;;;;;;36.00;17.17;;;-0.20;99.90;;;;;;4178021;28;20411;-62
2023/01/27 01:54:50;;;;;;;34.93;17.33;;;-0.20;99.90;;;;;;4176781;28;20293;-62
2023/01/27 01:57:06;;;;;;;30.97;15.57;;;-0.20;99.90;;;;;;4181337;28;20851;-64
2023/01/27 01:59:34;;;;;;;34.43;15.97;;;-0.10;99.90;;;;;;4180242;28;20844;-74
2023/01/27 02:01:35;;;;;;;39.80;19.80;;;-0.20;99.90;;;;;;4181592;28;20277;-62
2023/01/27 02:03:40;;;;;;;37.87;18.57;;;-0.10;99.90;;;;;;4182061;28;20270;-65
2023/01/27 02:05:43;;;;;;;41.23;17.57;;;-0.10;99.90;;;;;;4180677;28;20362;-77
2023/01/27 02:08:11;;;;;;;33.90;18.17;;;-0.10;99.90;;;;;;4180268;28;20770;-62
2023/01/27 02:10:12;;;;;;;32.50;16.93;;;-0.10;99.90;;;;;;4183556;28;20273;-66
2023/01/27 02:12:13;;;;;;;32.47;16.30;;;-0.10;99.90;;;;;;4196627;28;20258;-61
2023/01/27 02:14:16;;;;;;;33.97;15.80;;;-0.10;99.90;;;;;;4197507;28;20299;-70
2023/01/27 02:16:18;;;;;;;32.93;15.90;;;-0.10;99.90;;;;;;4179744;28;20711;-62
2023/01/27 02:18:20;;;;;;;31.10;15.30;;;-0.10;99.90;;;;;;4180526;28;20693;-61
2023/01/27 02:20:32;;;;;;;32.07;15.30;;;-0.10;99.90;;;;;;4179677;28;20701;-63
2023/01/27 02:22:54;;;;;;;29.53;15.13;;;0.00;99.90;;;;;;4180669;28;20278;-72
2023/01/27 02:25:04;;;;;;;35.83;15.93;;;-0.10;99.90;;;;;;4181172;28;20262;-70
2023/01/27 02:27:05;;;;;;;32.67;16.70;;;0.00;99.90;;;;;;4185264;28;20331;-72
2023/01/27 02:29:13;;;;;;;34.87;16.17;;;0.00;99.90;;;;;;4194737;28;21005;-63
2023/01/27 02:31:14;;;;;;;35.27;15.20;;;0.10;99.90;;;;;;4197424;28;20250;-63
2023/01/27 02:33:15;;;;;;;31.77;14.93;;;0.10;99.90;;;;;;4196180;28;20253;-61
2023/01/27 02:35:41;;;;;;;34.13;16.53;;;0.10;99.90;;;;;;4195098;28;20293;-62
2023/01/27 02:37:42;;;;;;;32.83;15.07;;;0.10;99.90;;;;;;4180462;28;20265;-61
2023/01/27 02:39:45;;;;;;;27.30;15.00;;;0.20;99.90;;;;;;4183519;28;20279;-67
2023/01/27 02:41:53;;;;;;;31.57;15.00;;;0.20;99.90;;;;;;4179506;28;20282;-61
2023/01/27 02:43:54;;;;;;;30.67;14.83;;;0.20;99.90;;;;;;4181557;28;20327;-72
2023/01/27 02:45:55;;;;;;;32.87;15.10;;;0.20;99.90;;;;;;4179210;28;20320;-61
2023/01/27 02:47:57;;;;;;;37.57;16.63;;;0.20;99.90;;;;;;4180010;28;20270;-63
2023/01/27 02:49:58;;;;;;;33.70;15.13;;;0.20;99.90;;;;;;4183277;28;20316;-61
2023/01/27 02:51:59;;;;;;;39.27;15.77;;;0.20;99.90;;;;;;4194347;28;20282;-62
2023/01/27 02:54:00;;;;;;;29.90;16.40;;;0.20;99.90;;;;;;4196650;28;20265;-69
2023/01/27 02:56:02;;;;;;;33.17;16.83;;;0.20;99.90;;;;;;4195886;28;20257;-64
2023/01/27 02:58:03;;;;;;;32.57;14.87;;;0.20;99.90;;;;;;4182778;28;20266;-64
2023/01/27 03:00:04;;;;;;;35.57;15.90;;;0.30;99.90;;;;;;4183527;28;20351;-62
2023/01/27 03:02:06;;;;;;;26.90;14.73;;;0.30;99.90;;;;;;4180644;28;20270;-63
2023/01/27 03:04:09;;;;;;;26.63;13.67;;;0.30;99.90;;;;;;4181117;28;20326;-62
2023/01/27 03:06:10;;;;;;;27.17;13.17;;;0.30;99.90;;;;;;4193633;28;20334;-61
2023/01/27 03:08:11;;;;;;;30.37;12.93;;;0.30;99.90;;;;;;4184333;28;20332;-65
2023/01/27 03:10:12;;;;;;;25.03;12.00;;;0.30;99.90;;;;;;4195029;28;20283;-62
2023/01/27 03:12:20;;;;;;;26.90;12.30;;;0.30;99.90;;;;;;4195549;28;20269;-61
2023/01/27 03:14:21;;;;;;;26.73;13.30;;;0.30;99.90;;;;;;4196471;28;20323;-62
2023/01/27 03:18:46;;;;;;;28.63;13.10;;;0.30;99.90;;;;;;4189501;28;20691;-76
2023/01/27 03:20:48;;;;;;;28.40;13.97;;;0.40;99.90;;;;;;4188271;28;20274;-62
2023/01/27 03:22:49;;;;;;;30.77;15.57;;;0.40;99.90;;;;;;4190785;28;20270;-62
2023/01/27 03:24:51;;;;;;;32.30;14.63;;;0.40;99.90;;;;;;4195774;28;21032;-62
2023/01/27 03:26:52;;;;;;;34.27;16.50;;;0.40;99.90;;;;;;4194337;28;20253;-72
2023/01/27 03:31:18;;;;;;;39.80;17.50;;;0.40;99.90;;;;;;4196443;28;20318;-63
2023/01/27 03:33:19;;;;;;;35.83;15.57;;;0.40;99.90;;;;;;4195477;28;20292;-63
2023/01/27 03:35:22;;;;;;;27.80;14.97;;;0.50;99.90;;;;;;4190992;28;20294;-63
2023/01/27 03:46:46;;;;;;;31.90;14.98;;;0.60;99.90;;;;;;4178816;28;20300;-63
2023/01/27 03:48:49;;;;;;;34.20;16.17;;;0.60;99.90;;;;;;4179840;28;20036;-63
2023/01/27 03:50:52;;;;;;;30.57;15.50;;;0.60;99.90;;;;;;4189722;28;20323;-61
2023/01/27 03:53:02;;;;;;;35.13;16.63;;;0.60;99.90;;;;;;4178343;28;20294;-62
2023/01/27 03:55:03;;;;;;;37.03;16.40;;;0.60;99.90;;;;;;4178710;28;20282;-61
2023/01/27 03:57:05;;;;;;;36.43;16.67;;;0.60;99.90;;;;;;4185697;28;20041;-75
2023/01/27 03:59:06;;;;;;;35.73;16.10;;;0.60;99.90;;;;;;4181911;28;20262;-62
2023/01/27 04:01:14;;;;;;;41.67;20.43;;;0.60;99.90;;;;;;4178830;28;20325;-76
2023/01/27 04:07:55;;;;;;;36.50;18.07;;;0.60;99.90;;;;;;4179066;28;20312;-62
2023/01/27 04:09:56;;;;;;;37.90;18.17;;;0.50;99.90;;;;;;4178413;28;20324;-62
2023/01/27 04:11:59;;;;;;;37.17;18.17;;;0.50;99.90;;;;;;4178792;28;20274;-71
2023/01/27 04:14:02;;;;;;;35.47;17.10;;;0.40;99.90;;;;;;4178033;28;20270;-74
2023/01/27 04:16:03;;;;;;;34.93;17.03;;;0.40;99.90;;;;;;4182348;28;20343;-61
2023/01/27 04:18:04;;;;;;;37.40;17.67;;;0.30;99.90;;;;;;4192935;28;20331;-70
2023/01/27 04:20:06;;;;;;;33.17;16.90;;;0.30;99.90;;;;;;4193619;28;20285;-62
2023/01/27 04:22:13;;;;;;;34.63;15.80;;;0.20;99.90;;;;;;4185504;28;20274;-64
2023/01/27 04:24:23;;;;;;;34.67;17.17;;;0.10;99.90;;;;;;4192145;28;20832;-64
2023/01/27 04:26:24;;;;;;;;;;;0.00;99.90;;;;;;4193261;28;20346;-61
2023/01/27 04:28:26;;;;;;;35.50;16.43;;;0.00;99.90;;;;;;4179957;28;19973;-61
2023/01/27 04:30:27;;;;;;;32.20;16.60;;;0.00;99.90;;;;;;4177190;28;20037;-61
2023/01/27 04:32:29;;;;;;;30.03;16.67;;;-0.10;99.90;;;;;;4178933;28;20270;-63
2023/01/27 04:34:31;;;;;;;33.97;16.43;;;-0.10;99.90;;;;;;4177189;28;20274;-67
2023/01/27 04:36:32;;;;;;;32.17;16.13;;;-0.10;99.90;;;;;;4179782;28;20274;-62
2023/01/27 04:38:33;;;;;;;29.57;15.37;;;-0.10;99.90;;;;;;4192829;28;20319;-61
2023/01/27 04:40:34;;;;;;;30.73;15.63;;;-0.10;99.90;;;;;;4180191;28;20320;-65
2023/01/27 04:42:36;;;;;;;29.90;15.33;;;-0.20;99.90;;;;;;4177799;28;20703;-66
2023/01/27 04:44:37;;;;;;;32.57;16.60;;;-0.20;99.90;;;;;;4178078;28;20262;-61
2023/01/27 04:46:38;;;;;;;35.27;15.30;;;-0.20;99.90;;;;;;4182846;28;20273;-62
2023/01/27 04:48:39;;;;;;;34.40;16.63;;;-0.10;99.90;;;;;;4193535;28;20307;-61
2023/01/27 04:50:40;;;;;;;29.70;14.87;;;-0.10;99.90;;;;;;4194815;28;20265;-62
2023/01/27 04:52:44;;;;;;;32.70;14.73;;;-0.10;99.90;;;;;;4189636;28;20331;-62
2023/01/27 04:54:45;;;;;;;28.93;13.93;;;0.00;99.90;;;;;;4178231;28;20336;-64
2023/01/27 04:57:00;;;;;;;30.33;14.70;;;0.00;99.90;;;;;;4177262;28;20718;-68
2023/01/27 04:59:06;;;;;;;29.20;13.83;;;0.10;99.90;;;;;;4192827;28;20319;-61
2023/01/27 05:01:07;;;;;;;28.77;13.83;;;0.10;99.90;;;;;;4191135;28;20327;-62
2023/01/27 05:03:09;;;;;;;27.13;13.60;;;0.10;99.90;;;;;;4194991;28;20660;-62
2023/01/27 05:05:10;;;;;;;29.10;15.10;;;0.10;99.90;;;;;;4193527;28;20277;-61
2023/01/27 05:07:11;;;;;;;29.90;14.13;;;0.20;99.90;;;;;;4186270;28;20316;-62
2023/01/27 05:09:12;;;;;;;27.53;15.37;;;0.20;99.90;;;;;;4193758;28;20287;-61
2023/01/27 05:11:14;;;;;;;27.33;14.40;;;0.20;99.90;;;;;;4194626;28;20265;-68
2023/01/27 05:13:15;;;;;;;28.90;15.03;;;0.20;99.90;;;;;;4193228;28;20254;-62
2023/01/27 05:15:16;;;;;;;32.23;15.53;;;0.20;99.90;;;;;;4191528;28;20285;-62
2023/01/27 05:17:17;;;;;;;26.43;14.83;;;0.20;99.90;;;;;;4184605;28;20297;-60
2023/01/27 05:19:18;;;;;;;32.17;15.67;;;0.20;99.90;;;;;;4193587;28;20664;-61
2023/01/27 05:21:23;;;;;;;28.97;14.10;;;0.20;99.90;;;;;;4193454;28;20355;-61
2023/01/27 05:23:36;;;;;;;28.20;14.23;;;0.30;99.90;;;;;;4192850;28;20764;-61
2023/01/27 05:25:41;;;;;;;27.77;14.30;;;0.20;99.90;;;;;;4193861;28;20307;-61
2023/01/27 05:27:42;;;;;;;25.50;12.97;;;0.20;99.90;;;;;;4192533;28;20299;-62
2023/01/27 05:29:43;;;;;;;24.67;13.33;;;0.20;99.90;;;;;;4183074;28;20265;-61
2023/01/27 05:31:45;;;;;;;32.23;15.33;;;0.10;99.90;;;;;;4191536;28;20282;-62
2023/01/27 05:33:48;;;;;;;26.10;13.40;;;0.20;99.90;;;;;;4185140;28;20322;-62
2023/01/27 05:35:49;;;;;;;28.70;13.67;;;0.20;99.90;;;;;;4193093;28;20342;-61
2023/01/27 05:37:50;;;;;;;27.30;14.13;;;0.20;99.90;;;;;;4193012;28;20323;-62
2023/01/27 05:39:51;;;;;;;45.87;21.90;;;0.20;99.90;;;;;;4190954;28;20278;-61
2023/01/27 05:41:53;;;;;;;35.87;17.07;;;0.20;99.90;;;;;;4178120;28;20407;-65
2023/01/27 05:43:55;;;;;;;33.33;17.70;;;0.20;99.90;;;;;;4179221;28;20680;-62
2023/01/27 05:46:10;;;;;;;51.87;22.17;;;0.10;99.90;;;;;;4194273;28;20269;-61
2023/01/27 05:48:11;;;;;;;122.90;51.37;;;0.10;99.90;;;;;;4191617;28;20319;-62
2023/01/27 05:50:12;;;;;;;54.00;24.30;;;0.10;99.90;;;;;;4194200;28;20311;-62
2023/01/27 05:52:13;;;;;;;27.10;14.20;;;0.10;99.90;;;;;;4193008;28;20671;-61
2023/01/27 05:54:14;;;;;;;34.20;15.07;;;0.00;99.90;;;;;;4193738;28;20275;-62
2023/01/27 05:56:18;;;;;;;29.77;16.40;;;0.00;99.90;;;;;;4192948;28;20773;-61
2023/01/27 05:58:21;;;;;;;33.23;17.70;;;-0.10;99.90;;;;;;4193403;28;20277;-61
2023/01/27 06:00:23;;;;;;;37.87;19.50;;;-0.20;99.90;;;;;;4193816;28;20249;-61
2023/01/27 06:02:24;;;;;;;46.47;22.07;;;-0.20;99.90;;;;;;4193327;28;20614;-62
2023/01/27 06:04:25;;;;;;;45.53;21.47;;;-0.30;99.90;;;;;;4193833;28;20269;-73
2023/01/27 06:06:28;;;;;;;39.90;21.40;;;-0.30;99.90;;;;;;4192888;28;20749;-62
2023/01/27 06:08:30;;;;;;;49.97;23.37;;;-0.40;99.90;;;;;;4193981;28;20323;-62
2023/01/27 06:10:31;;;;;;;51.50;24.23;;;-0.40;99.90;;;;;;4192948;28;20250;-63
2023/01/27 06:12:32;;;;;;;41.07;20.53;;;-0.40;99.90;;;;;;4193885;28;20284;-62
2023/01/27 06:14:33;;;;;;;37.53;18.97;;;-0.50;99.90;;;;;;4192716;28;20261;-61
2023/01/27 06:16:34;;;;;;;50.23;23.17;;;-0.50;99.90;;;;;;4193714;28;20386;-61
2023/01/27 06:18:37;;;;;;;46.43;24.57;;;-0.50;99.90;;;;;;4192278;28;20327;-62
2023/01/27 06:20:38;;;;;;;47.67;24.93;;;-0.50;99.90;;;;;;4193647;28;20281;-62
2023/01/27 06:22:39;;;;;;;47.93;23.43;;;-0.50;99.90;;;;;;4193194;28;20764;-64
2023/01/27 06:24:40;;;;;;;50.90;23.17;;;-0.50;99.90;;;;;;4193924;28;20262;-63
2023/01/27 06:26:41;;;;;;;50.17;23.07;;;-0.60;99.90;;;;;;4192919;28;20254;-66
2023/01/27 06:28:43;;;;;;;44.23;22.90;;;-0.60;99.90;;;;;;4193671;28;20303;-62
2023/01/27 06:30:45;;;;;;;45.83;23.73;;;-0.60;99.90;;;;;;4193551;28;20799;-61
2023/01/27 06:32:46;;;;;;;57.03;24.40;;;-0.50;99.90;;;;;;4193071;28;20273;-61
2023/01/27 06:34:47;;;;;;;55.53;25.73;;;-0.60;99.90;;;;;;4193228;28;20373;-65
2023/01/27 06:36:48;;;;;;;48.80;24.07;;;-0.60;99.90;;;;;;4192683;28;20751;-64
2023/01/27 06:38:50;;;;;;;53.60;23.50;;;-0.60;99.90;;;;;;4193789;28;20334;-63
2023/01/27 06:40:51;;;;;;;49.63;25.30;;;-0.50;99.90;;;;;;4192545;28;20262;-67
2023/01/27 06:42:52;;;;;;;53.83;25.77;;;-0.60;99.90;;;;;;4197041;28;20614;-62
2023/01/27 06:44:54;;;;;;;56.87;25.83;;;-0.60;99.90;;;;;;4195641;28;20346;-63
2023/01/27 06:46:55;;;;;;;48.93;25.20;;;-0.50;99.90;;;;;;4195960;28;20273;-62
2023/01/27 06:48:57;;;;;;;44.63;21.93;;;-0.50;99.90;;;;;;4195284;28;20326;-61
2023/01/27 06:50:58;;;;;;;45.93;20.97;;;-0.50;99.90;;;;;;4196698;28;20270;-61
2023/01/27 06:53:01;;;;;;;42.43;21.13;;;-0.60;99.90;;;;;;4195071;28;20438;-61
2023/01/27 06:55:04;;;;;;;45.60;21.03;;;-0.50;99.90;;;;;;4196264;28;20266;-62
2023/01/27 06:57:08;;;;;;;40.63;19.83;;;-0.60;99.90;;;;;;4195083;28;20290;-63
2023/01/27 06:59:09;;;;;;;45.20;21.57;;;-0.60;99.90;;;;;;4195976;28;20318;-62
2023/01/27 07:01:11;;;;;;;44.03;24.43;;;-0.60;99.90;;;;;;4195811;28;20269;-62
2023/01/27 07:03:12;;;;;;;46.00;23.50;;;-0.60;99.90;;;;;;4195724;28;20311;-63
2023/01/27 07:05:13;;;;;;;44.93;22.73;;;-0.60;99.90;;;;;;4194022;28;20327;-62
2023/01/27 07:07:15;;;;;;;51.90;22.33;;;-0.60;99.90;;;;;;4195444;28;20326;-62
2023/01/27 07:09:16;;;;;;;51.53;24.43;;;-0.60;99.90;;;;;;4196231;28;20277;-63
2023/01/27 07:11:17;;;;;;;42.60;22.30;;;-0.60;99.90;;;;;;4195585;28;20671;-62
2023/01/27 07:13:18;;;;;;;43.13;20.67;;;-0.60;99.90;;;;;;4196456;28;20258;-63
2023/01/27 07:15:19;;;;;;;45.50;23.03;;;-0.70;99.90;;;;;;4195398;28;20277;-62
2023/01/27 07:17:20;;;;;;;47.87;22.33;;;-0.70;99.90;;;;;;4196252;28;20338;-63
2023/01/27 07:19:21;;;;;;;50.83;24.77;;;-0.70;99.90;;;;;;4195119;28;20254;-64
2023/01/27 07:21:24;;;;;;;47.67;21.77;;;-0.70;99.90;;;;;;4196501;28;20318;-62
2023/01/27 07:23:25;;;;;;;54.37;26.23;;;-0.70;99.90;;;;;;4194955;28;20303;-62
2023/01/27 07:25:27;;;;;;;41.60;20.70;;;-0.70;99.90;;;;;;4196295;28;20300;-62
2023/01/27 07:27:28;;;;;;;43.50;21.70;;;-0.70;99.90;;;;;;4194838;28;20358;-62
2023/01/27 07:29:29;;;;;;;40.80;18.93;;;-0.70;99.90;;;;;;4195411;28;20261;-61
2023/01/27 07:31:32;;;;;;;45.67;20.03;;;-0.70;99.90;;;;;;4195604;28;20270;-62
2023/01/27 07:33:33;;;;;;;45.47;19.97;;;-0.70;99.90;;;;;;4195579;28;20647;-61
2023/01/27 07:35:36;;;;;;;44.37;21.97;;;-0.70;99.90;;;;;;4195542;28;20285;-61
2023/01/27 07:37:37;;;;;;;47.47;22.07;;;-0.70;99.90;;;;;;4195091;28;20251;-62
2023/01/27 07:39:38;;;;;;;45.00;20.60;;;-0.70;99.90;;;;;;4195770;28;20664;-63
2023/01/27 07:41:40;;;;;;;36.43;19.07;;;-0.70;99.90;;;;;;4195155;28;20810;-73
2023/01/27 07:43:41;;;;;;;39.90;17.27;;;-0.70;99.90;;;;;;4195995;28;20273;-62
2023/01/27 07:45:42;;;;;;;21.83;10.50;;;-0.80;99.90;;;;;;4194688;28;20270;-64
2023/01/27 07:47:43;;;;;;;23.00;12.03;;;-0.80;99.90;;;;;;4196128;28;21005;-63
2023/01/27 07:49:44;;;;;;;26.20;12.33;;;-0.90;99.90;;;;;;4194384;28;20352;-62
2023/01/27 07:51:45;;;;;;;27.43;12.97;;;-0.80;99.90;;;;;;4195821;28;20330;-62
2023/01/27 07:53:46;;;;;;;23.00;12.43;;;-0.80;99.90;;;;;;4193483;28;20311;-70
2023/01/27 07:55:48;;;;;;;24.83;12.13;;;-0.80;99.90;;;;;;4196046;28;20757;-68
2023/01/27 07:57:52;;;;;;;27.67;14.07;;;-0.80;99.90;;;;;;4194765;28;20253;-63
2023/01/27 07:59:55;;;;;;;29.30;14.30;;;-0.80;99.90;;;;;;4195684;28;20266;-71
2023/01/27 08:01:56;;;;;;;39.37;16.07;;;-0.80;99.90;;;;;;4195226;28;20325;-62
2023/01/27 08:03:57;;;;;;;27.53;13.33;;;-0.80;99.90;;;;;;4195191;28;20258;-62
2023/01/27 08:06:04;;;;;;;25.50;12.60;;;-0.80;99.90;;;;;;4195091;28;20269;-62
2023/01/27 08:08:05;;;;;;;35.80;14.50;;;-0.80;99.90;;;;;;4194961;28;20253;-62
2023/01/27 08:10:06;;;;;;;31.87;14.30;;;-0.80;99.90;;;;;;4195210;28;20653;-60
2023/01/27 08:12:08;;;;;;;34.67;16.10;;;-0.70;99.90;;;;;;4194577;28;20330;-66
2023/01/27 08:14:09;;;;;;;26.93;12.67;;;-0.70;99.90;;;;;;4195242;28;20254;-62
2023/01/27 08:16:13;;;;;;;28.77;14.73;;;-0.70;99.90;;;;;;4194287;28;20292;-65
2023/01/27 08:18:14;;;;;;;25.83;14.47;;;-0.70;99.90;;;;;;4195431;28;20281;-66
2023/01/27 08:20:16;;;;;;;27.90;14.40;;;-0.70;99.90;;;;;;4194291;28;20311;-67
2023/01/27 08:22:21;;;;;;;26.20;14.10;;;-0.70;99.90;;;;;;4195550;28;20750;-70
2023/01/27 08:24:22;;;;;;;26.60;13.70;;;-0.80;99.90;;;;;;4194420;28;20265;-63
2023/01/27 08:26:23;;;;;;;28.90;14.70;;;-0.80;99.90;;;;;;4195535;28;20311;-63
2023/01/27 08:28:26;;;;;;;28.50;14.57;;;-0.70;99.90;;;;;;4194089;28;20270;-64
2023/01/27 08:30:27;;;;;;;27.77;13.83;;;-0.70;99.90;;;;;;4194974;28;20277;-69
2023/01/27 08:32:28;;;;;;;29.40;15.60;;;-0.70;99.90;;;;;;4194402;28;20810;-66
2023/01/27 08:34:29;;;;;;;30.97;14.03;;;-0.80;99.90;;;;;;4195026;28;20295;-63
2023/01/27 08:36:30;;;;;;;33.03;15.03;;;-0.80;99.90;;;;;;4194232;28;20289;-71
2023/01/27 08:38:33;;;;;;;29.37;15.70;;;-0.80;99.90;;;;;;4195077;28;20299;-72
2023/01/27 08:40:34;;;;;;;30.47;15.87;;;-0.70;99.90;;;;;;4194694;28;20721;-63
2023/01/27 08:42:35;;;;;;;32.30;15.87;;;-0.70;99.90;;;;;;4194405;28;20261;-70
2023/01/27 08:44:36;;;;;;;33.63;16.30;;;-0.70;99.90;;;;;;4194972;28;20611;-69
2023/01/27 08:46:37;;;;;;;33.87;16.60;;;-0.60;99.90;;;;;;4193921;28;20265;-68
2023/01/27 08:48:39;;;;;;;32.30;16.60;;;-0.60;99.90;;;;;;4194833;28;20261;-67
2023/01/27 08:50:40;;;;;;;34.67;18.13;;;-0.60;99.90;;;;;;4193710;28;20270;-66
2023/01/27 08:52:41;;;;;;;42.00;19.37;;;-0.50;99.90;;;;;;4194744;28;20318;-71
2023/01/27 08:54:42;;;;;;;36.50;17.40;;;-0.50;99.90;;;;;;4193576;28;20277;-62
2023/01/27 08:56:43;;;;;;;38.50;18.57;;;-0.50;99.90;;;;;;4194640;28;20339;-68
2023/01/27 08:58:47;;;;;;;43.37;20.80;;;-0.50;99.90;;;;;;4192268;28;20285;-68
2023/01/27 09:00:48;;;;;;;40.67;20.23;;;-0.40;99.90;;;;;;4194451;28;20346;-62
2023/01/27 09:02:52;;;;;;;36.70;19.97;;;-0.40;99.90;;;;;;4193880;28;20273;-62
2023/01/27 09:04:53;;;;;;;46.87;21.40;;;-0.40;99.90;;;;;;4194046;28;20265;-63
2023/01/27 09:06:54;;;;;;;44.23;22.33;;;-0.40;99.90;;;;;;4193568;28;20367;-61
2023/01/27 09:09:07;;;;;;;42.30;21.43;;;-0.30;99.90;;;;;;4194140;28;20258;-61
2023/01/27 09:11:14;;;;;;;44.63;24.07;;;-0.20;99.90;;;;;;4193522;28;20675;-63
2023/01/27 09:13:15;;;;;;;36.27;18.83;;;-0.10;99.90;;;;;;4193819;28;20331;-60
2023/01/27 09:15:17;;;;;;;54.17;28.23;;;-0.10;99.90;;;;;;4193699;28;20254;-63
2023/01/27 09:17:18;;;;;;;43.73;22.40;;;0.00;99.90;;;;;;4193448;28;20684;-62
2023/01/27 09:19:19;;;;;;;30.63;17.67;;;0.10;99.90;;;;;;4193455;28;20269;-63
2023/01/27 09:21:20;;;;;;;38.67;19.43;;;0.10;99.90;;;;;;4193538;28;21353;-61
2023/01/27 09:23:22;;;;;;;37.77;21.03;;;0.10;99.90;;;;;;4194307;28;20274;-63
2023/01/27 09:25:23;;;;;;;43.87;26.00;;;0.10;99.90;;;;;;4193284;28;20257;-62
2023/01/27 09:27:24;;;;;;;33.30;19.43;;;0.20;99.90;;;;;;4193897;28;20764;-66
2023/01/27 09:29:25;;;;;;;36.13;19.90;;;0.20;99.90;;;;;;4193020;28;20648;-63
2023/01/27 09:31:27;;;;;;;48.90;23.17;;;0.30;99.90;;;;;;4194467;28;20371;-63
2023/01/27 09:33:28;;;;;;;42.20;20.43;;;0.30;99.90;;;;;;4193163;28;20342;-63
2023/01/27 09:35:35;;;;;;;33.53;16.80;;;0.30;99.90;;;;;;4194201;28;20330;-62
2023/01/27 09:37:52;;;;;;;30.83;16.37;;;0.30;99.90;;;;;;4192740;28;20336;-62
2023/01/27 09:40:01;;;;;;;45.23;21.33;;;0.30;99.90;;;;;;4193432;28;20323;-68
2023/01/27 09:42:30;;;;;;;58.20;28.33;;;0.40;99.90;;;;;;4192409;28;20346;-63
2023/01/27 09:44:50;;;;;;;32.83;17.87;;;0.40;99.90;;;;;;4194231;28;20257;-63
2023/01/27 09:47:00;;;;;;;35.97;20.67;;;0.50;99.90;;;;;;4192925;28;20269;-69
2023/01/27 09:49:31;;;;;;;32.35;17.63;;;0.60;99.90;;;;;;4193848;28;20032;-62
2023/01/27 09:51:51;;;;;;;33.20;17.65;;;0.50;99.90;;;;;;4192781;28;20086;-63
2023/01/27 09:53:58;;;;;;;43.57;20.23;;;0.50;99.90;;;;;;4193623;28;20110;-62
2023/01/27 09:56:14;;;;;;;41.83;20.47;;;0.60;99.90;;;;;;4192663;28;20270;-63
2023/01/27 09:58:15;;;;;;;35.30;19.87;;;0.60;99.90;;;;;;4193520;28;20311;-68
2023/01/27 10:00:38;;;;;;;36.17;19.23;;;0.70;99.90;;;;;;4192811;28;20311;-63
2023/01/27 10:02:57;;;;;;;39.47;20.27;;;0.80;99.90;;;;;;4193883;28;20261;-64
2023/01/27 10:05:28;;;;;;;40.53;20.47;;;0.80;99.90;;;;;;4192880;28;20262;-62
2023/01/27 10:07:43;;;;;;;42.08;19.17;;;0.80;99.90;;;;;;4192738;28;20660;-62
2023/01/27 10:10:21;;;;;;;42.10;19.30;;;0.70;99.90;;;;;;4191875;28;20082;-62
2023/01/27 10:12:52;;;;;;;38.40;20.37;;;0.70;99.90;;;;;;4192822;28;20269;-62
2023/01/27 10:14:59;;;;;;;;;;;0.60;99.90;;;;;;4194438;28;20625;-64
2023/01/27 10:17:11;;;;;;;36.57;19.03;;;0.60;99.90;;;;;;4194665;28;19920;-63
2023/01/27 10:19:21;;;;;;;36.90;20.87;;;0.60;99.90;;;;;;4196909;28;20350;-62
2023/01/27 10:21:51;;;;;;;38.22;19.50;;;0.60;99.90;;;;;;4195957;28;20274;-64
2023/01/27 10:24:25;;;;;;;34.58;18.33;;;0.50;99.90;;;;;;4196839;28;20798;-62
2023/01/27 10:26:34;;;;;;;41.87;19.90;;;0.50;99.90;;;;;;4196034;28;20445;-62
2023/01/27 10:28:37;;;;;;;37.97;19.10;;;0.50;99.90;;;;;;4196467;28;20265;-62
2023/01/27 10:30:46;;;;;;;37.70;18.47;;;0.60;99.90;;;;;;4195199;28;20741;-63
2023/01/27 10:32:53;;;;;;;39.63;20.20;;;0.60;99.90;;;;;;4197006;28;20335;-63
2023/01/27 10:35:17;;;;;;;38.00;20.13;;;0.60;99.90;;;;;;4195593;28;20733;-61
2023/01/27 10:37:48;;;;;;;42.63;20.20;;;0.60;99.90;;;;;;4196253;28;20281;-65
2023/01/27 10:40:20;;;;;;;38.47;20.23;;;0.60;99.90;;;;;;4164844;28;20319;-62
2023/01/27 10:42:32;;;;;;;35.30;19.30;;;0.70;99.90;;;;;;4195273;28;20036;-63
2023/01/27 10:45:02;;;;;;;35.10;20.13;;;0.70;99.90;;;;;;4196651;28;20323;-62
2023/01/27 10:47:41;;;;;;;36.85;19.90;;;0.60;99.90;;;;;;4195486;28;20285;-64
2023/01/27 10:49:56;;;;;;;33.00;18.67;;;0.60;99.90;;;;;;4196253;28;20033;-62
2023/01/27 10:52:09;;;;;;;35.53;19.03;;;0.60;99.90;;;;;;4195368;28;20656;-63
2023/01/27 10:54:36;;;;;;;32.57;15.77;;;0.60;99.90;;;;;;4196452;28;20262;-63
2023/01/27 10:56:41;;;;;;;28.50;14.90;;;0.70;99.90;;;;;;4194927;28;20350;-62
2023/01/27 10:59:05;;;;;;;31.20;15.83;;;0.70;99.90;;;;;;4196125;28;20266;-62
2023/01/27 11:01:09;;;;;;;26.57;14.40;;;0.70;99.90;;;;;;4195149;28;20314;-62
2023/01/27 11:03:32;;;;;;;29.40;15.70;;;0.70;99.90;;;;;;4196264;28;20277;-63
2023/01/27 11:06:01;;;;;;;27.50;16.03;;;0.70;99.90;;;;;;4195433;28;20390;-64
2023/01/27 11:08:10;;;;;;;27.97;14.63;;;0.70;99.90;;;;;;4195156;28;20322;-63
2023/01/27 11:10:19;;;;;;;28.87;14.87;;;0.70;99.90;;;;;;4195853;28;20644;-63